sensor_id;sensor_type;location;lat;lon;timestamp;temperature;humidity
18444;DHT22;9350;53.176;8.194;2023-04-25T00:02:11;9.00;99.90
18444;DHT22;9350;53.176;8.194;2023-04-25T00:04:37;8.90;99.90
18444;DHT22;9350;53.176;8.194;2023-04-25T00:07:05;8.80;99.90
18444;DHT22;9350;53.176;8.194;2023-04-25T00:09:32;8.80;99.90
18444;DHT22;9350;53.176;8.194;2023-04-25T00:11:59;8.90;99.90
18444;DHT22;9350;53.176;8.194;2023-04-25T00:14:26;8.80;99.90
18444;DHT22;9350;53.176;8.194;2023-04-25T00:16:54;8.90;99.90
18444;DHT22;9350;53.176;8.194;2023-04-25T00:19:20;8.80;99.90
18444;DHT22;9350;53.176;8.194;2023-04-25T00:21:47;8.80;99.90
18444;DHT22;9350;53.176;8.194;2023-04-25T00:24:15;8.80;99.90
18444;DHT22;9350;53.176;8.194;2023-04-25T00:26:42;8.70;99.90
18444;DHT22;9350;53.176;8.194;2023-04-25T00:29:09;8.70;99.90
18444;DHT22;9350;53.176;8.194;2023-04-25T00:31:36;8.70;99.90
18444;DHT22;9350;53.176;8.194;2023-04-25T00:34:02;8.70;99.90
18444;DHT22;9350;53.176;8.194;2023-04-25T00:36:29;8.70;99.90
18444;DHT22;9350;53.176;8.194;2023-04-25T00:38:56;8.70;99.90
18444;DHT22;9350;53.176;8.194;2023-04-25T00:41:25;8.70;99.90
18444;DHT22;9350;53.176;8.194;2023-04-25T00:43:54;8.70;99.90
18444;DHT22;9350;53.176;8.194;2023-04-25T00:46:21;8.60;99.90
18444;DHT22;9350;53.176;8.194;2023-04-25T00:48:47;8.60;99.90
18444;DHT22;9350;53.176;8.194;2023-04-25T00:51:19;8.60;99.90
18444;DHT22;9350;53.176;8.194;2023-04-25T00:53:46;8.50;99.90
18444;DHT22;9350;53.176;8.194;2023-04-25T00:56:13;8.50;99.90
18444;DHT22;9350;53.176;8.194;2023-04-25T00:58:42;8.50;99.90
18444;DHT22;9350;53.176;8.194;2023-04-25T01:01:09;8.50;99.90
18444;DHT22;9350;53.176;8.194;2023-04-25T01:03:38;8.50;99.90
18444;DHT22;9350;53.176;8.194;2023-04-25T01:06:07;8.40;99.90
18444;DHT22;9350;53.176;8.194;2023-04-25T01:08:34;8.40;99.90
18444;DHT22;9350;53.176;8.194;2023-04-25T01:11:01;8.40;99.90
18444;DHT22;9350;53.176;8.194;2023-04-25T01:13:29;8.40;99.90
18444;DHT22;9350;53.176;8.194;2023-04-25T01:15:58;8.40;99.90
18444;DHT22;9350;53.176;8.194;2023-04-25T01:18:25;8.40;99.90
18444;DHT22;9350;53.176;8.194;2023-04-25T01:20:52;8.30;99.90
18444;DHT22;9350;53.176;8.194;2023-04-25T01:23:22;8.40;99.90
18444;DHT22;9350;53.176;8.194;2023-04-25T01:25:49;8.30;99.90
18444;DHT22;9350;53.176;8.194;2023-04-25T01:28:16;8.30;99.90
18444;DHT22;9350;53.176;8.194;2023-04-25T01:30:43;8.30;99.90
18444;DHT22;9350;53.176;8.194;2023-04-25T01:33:10;8.30;99.90
18444;DHT22;9350;53.176;8.194;2023-04-25T01:35:38;8.30;99.90
18444;DHT22;9350;53.176;8.194;2023-04-25T01:38:06;8.40;99.90
18444;DHT22;9350;53.176;8.194;2023-04-25T01:40:37;8.30;99.90
18444;DHT22;9350;53.176;8.194;2023-04-25T01:43:05;8.30;99.90
18444;DHT22;9350;53.176;8.194;2023-04-25T01:45:33;8.30;99.90
18444;DHT22;9350;53.176;8.194;2023-04-25T01:48:02;8.40;99.90
18444;DHT22;9350;53.176;8.194;2023-04-25T01:50:28;8.20;99.90
18444;DHT22;9350;53.176;8.194;2023-04-25T01:52:55;8.10;99.90
18444;DHT22;9350;53.176;8.194;2023-04-25T01:55:22;8.20;99.90
18444;DHT22;9350;53.176;8.194;2023-04-25T01:57:50;8.30;99.90
18444;DHT22;9350;53.176;8.194;2023-04-25T02:00:18;8.20;99.90
18444;DHT22;9350;53.176;8.194;2023-04-25T02:02:45;8.30;99.90
18444;DHT22;9350;53.176;8.194;2023-04-25T02:05:12;8.20;99.90
18444;DHT22;9350;53.176;8.194;2023-04-25T02:07:38;8.10;99.90
18444;DHT22;9350;53.176;8.194;2023-04-25T02:10:06;8.20;99.90
18444;DHT22;9350;53.176;8.194;2023-04-25T02:12:32;8.30;99.90
18444;DHT22;9350;53.176;8.194;2023-04-25T02:15:01;8.10;99.90
18444;DHT22;9350;53.176;8.194;2023-04-25T02:17:28;8.10;99.90
18444;DHT22;9350;53.176;8.194;2023-04-25T02:19:54;8.00;99.90
18444;DHT22;9350;53.176;8.194;2023-04-25T02:22:21;8.00;99.90
18444;DHT22;9350;53.176;8.194;2023-04-25T02:24:48;8.10;99.90
18444;DHT22;9350;53.176;8.194;2023-04-25T02:27:15;8.10;99.90
18444;DHT22;9350;53.176;8.194;2023-04-25T02:29:42;8.10;99.90
18444;DHT22;9350;53.176;8.194;2023-04-25T02:32:10;8.00;99.90
18444;DHT22;9350;53.176;8.194;2023-04-25T02:34:37;8.00;99.90
18444;DHT22;9350;53.176;8.194;2023-04-25T02:37:03;8.10;99.90
18444;DHT22;9350;53.176;8.194;2023-04-25T02:39:30;8.10;99.90
18444;DHT22;9350;53.176;8.194;2023-04-25T02:41:57;8.10;99.90
18444;DHT22;9350;53.176;8.194;2023-04-25T02:44:23;8.00;99.90
18444;DHT22;9350;53.176;8.194;2023-04-25T02:46:50;8.00;99.90
18444;DHT22;9350;53.176;8.194;2023-04-25T02:49:18;8.00;99.90
18444;DHT22;9350;53.176;8.194;2023-04-25T02:51:45;7.90;99.90
18444;DHT22;9350;53.176;8.194;2023-04-25T02:54:12;8.00;99.90
18444;DHT22;9350;53.176;8.194;2023-04-25T02:56:38;8.00;99.90
18444;DHT22;9350;53.176;8.194;2023-04-25T02:59:05;8.00;99.90
18444;DHT22;9350;53.176;8.194;2023-04-25T03:01:32;8.00;99.90
18444;DHT22;9350;53.176;8.194;2023-04-25T03:03:59;8.00;99.90
18444;DHT22;9350;53.176;8.194;2023-04-25T03:06:27;7.90;99.90
18444;DHT22;9350;53.176;8.194;2023-04-25T03:08:54;7.90;99.90
18444;DHT22;9350;53.176;8.194;2023-04-25T03:11:21;7.80;99.90
18444;DHT22;9350;53.176;8.194;2023-04-25T03:13:48;7.80;99.90
18444;DHT22;9350;53.176;8.194;2023-04-25T03:16:14;7.80;99.90
18444;DHT22;9350;53.176;8.194;2023-04-25T03:18:41;7.80;99.90
18444;DHT22;9350;53.176;8.194;2023-04-25T03:21:08;7.80;99.90
18444;DHT22;9350;53.176;8.194;2023-04-25T03:23:36;7.80;99.90
18444;DHT22;9350;53.176;8.194;2023-04-25T03:26:03;7.80;99.90
18444;DHT22;9350;53.176;8.194;2023-04-25T03:28:30;7.80;99.90
18444;DHT22;9350;53.176;8.194;2023-04-25T03:30:57;7.80;99.90
18444;DHT22;9350;53.176;8.194;2023-04-25T03:33:24;7.80;99.90
18444;DHT22;9350;53.176;8.194;2023-04-25T03:35:51;7.80;99.90
18444;DHT22;9350;53.176;8.194;2023-04-25T03:38:18;7.80;99.90
18444;DHT22;9350;53.176;8.194;2023-04-25T03:40:46;7.70;99.90
18444;DHT22;9350;53.176;8.194;2023-04-25T03:43:13;7.70;99.90
18444;DHT22;9350;53.176;8.194;2023-04-25T03:45:40;7.70;99.90
18444;DHT22;9350;53.176;8.194;2023-04-25T03:48:07;7.70;99.90
18444;DHT22;9350;53.176;8.194;2023-04-25T03:50:34;7.70;99.90
18444;DHT22;9350;53.176;8.194;2023-04-25T03:53:01;7.70;99.90
18444;DHT22;9350;53.176;8.194;2023-04-25T03:55:27;7.70;99.90
18444;DHT22;9350;53.176;8.194;2023-04-25T03:57:55;7.60;99.90
18444;DHT22;9350;53.176;8.194;2023-04-25T04:00:23;7.60;99.90
18444;DHT22;9350;53.176;8.194;2023-04-25T04:02:50;7.70;99.90
18444;DHT22;9350;53.176;8.194;2023-04-25T04:05:17;7.60;99.90
18444;DHT22;9350;53.176;8.194;2023-04-25T04:07:44;7.70;99.90
18444;DHT22;9350;53.176;8.194;2023-04-25T04:10:11;7.60;99.90
18444;DHT22;9350;53.176;8.194;2023-04-25T04:12:38;7.70;99.90
18444;DHT22;9350;53.176;8.194;2023-04-25T04:15:07;7.70;99.90
18444;DHT22;9350;53.176;8.194;2023-04-25T04:17:34;7.60;99.90
18444;DHT22;9350;53.176;8.194;2023-04-25T04:20:01;7.60;99.90
18444;DHT22;9350;53.176;8.194;2023-04-25T04:22:28;7.70;99.90
18444;DHT22;9350;53.176;8.194;2023-04-25T04:24:55;7.70;99.90
18444;DHT22;9350;53.176;8.194;2023-04-25T04:27:23;7.80;99.90
18444;DHT22;9350;53.176;8.194;2023-04-25T04:29:50;7.70;99.90
18444;DHT22;9350;53.176;8.194;2023-04-25T04:32:19;7.50;99.90
18444;DHT22;9350;53.176;8.194;2023-04-25T04:34:45;7.50;99.90
18444;DHT22;9350;53.176;8.194;2023-04-25T04:37:14;7.60;99.90
18444;DHT22;9350;53.176;8.194;2023-04-25T04:39:40;7.50;99.90
18444;DHT22;9350;53.176;8.194;2023-04-25T04:42:07;7.60;99.90
18444;DHT22;9350;53.176;8.194;2023-04-25T04:44:34;7.60;99.90
18444;DHT22;9350;53.176;8.194;2023-04-25T04:47:02;7.60;99.90
18444;DHT22;9350;53.176;8.194;2023-04-25T04:49:33;7.50;99.90
18444;DHT22;9350;53.176;8.194;2023-04-25T04:51:59;7.50;99.90
18444;DHT22;9350;53.176;8.194;2023-04-25T04:54:26;7.70;99.90
18444;DHT22;9350;53.176;8.194;2023-04-25T04:56:53;7.60;99.90
18444;DHT22;9350;53.176;8.194;2023-04-25T04:59:20;7.50;99.90
18444;DHT22;9350;53.176;8.194;2023-04-25T05:01:47;7.60;99.90
18444;DHT22;9350;53.176;8.194;2023-04-25T05:04:14;7.50;99.90
18444;DHT22;9350;53.176;8.194;2023-04-25T05:06:42;7.60;99.90
18444;DHT22;9350;53.176;8.194;2023-04-25T05:09:09;7.50;99.90
18444;DHT22;9350;53.176;8.194;2023-04-25T05:11:36;7.40;99.90
18444;DHT22;9350;53.176;8.194;2023-04-25T05:14:03;7.40;99.90
18444;DHT22;9350;53.176;8.194;2023-04-25T05:16:29;7.40;99.90
18444;DHT22;9350;53.176;8.194;2023-04-25T05:18:56;7.40;99.90
18444;DHT22;9350;53.176;8.194;2023-04-25T05:21:23;7.60;99.90
18444;DHT22;9350;53.176;8.194;2023-04-25T05:23:52;7.50;99.90
18444;DHT22;9350;53.176;8.194;2023-04-25T05:26:18;7.40;99.90
18444;DHT22;9350;53.176;8.194;2023-04-25T05:28:46;7.60;99.90
18444;DHT22;9350;53.176;8.194;2023-04-25T05:31:13;7.50;99.90
18444;DHT22;9350;53.176;8.194;2023-04-25T05:33:40;7.50;99.90
18444;DHT22;9350;53.176;8.194;2023-04-25T05:36:07;7.60;99.90
18444;DHT22;9350;53.176;8.194;2023-04-25T05:38:34;7.60;99.90
18444;DHT22;9350;53.176;8.194;2023-04-25T05:41:02;7.60;99.90
18444;DHT22;9350;53.176;8.194;2023-04-25T05:43:29;7.60;99.90
18444;DHT22;9350;53.176;8.194;2023-04-25T05:45:56;7.70;99.90
18444;DHT22;9350;53.176;8.194;2023-04-25T05:48:22;7.80;99.90
18444;DHT22;9350;53.176;8.194;2023-04-25T05:50:49;7.80;99.90
18444;DHT22;9350;53.176;8.194;2023-04-25T05:53:16;7.80;99.90
18444;DHT22;9350;53.176;8.194;2023-04-25T05:55:43;7.80;99.90
18444;DHT22;9350;53.176;8.194;2023-04-25T05:58:11;7.80;99.90
18444;DHT22;9350;53.176;8.194;2023-04-25T06:00:38;7.90;99.90
18444;DHT22;9350;53.176;8.194;2023-04-25T06:03:07;7.90;99.90
18444;DHT22;9350;53.176;8.194;2023-04-25T06:05:35;7.90;99.90
18444;DHT22;9350;53.176;8.194;2023-04-25T06:08:01;8.00;99.90
18444;DHT22;9350;53.176;8.194;2023-04-25T06:10:28;8.10;99.90
18444;DHT22;9350;53.176;8.194;2023-04-25T06:12:55;8.10;99.90
18444;DHT22;9350;53.176;8.194;2023-04-25T06:15:23;8.10;99.90
18444;DHT22;9350;53.176;8.194;2023-04-25T06:17:50;8.10;99.90
18444;DHT22;9350;53.176;8.194;2023-04-25T06:20:17;8.00;99.90
18444;DHT22;9350;53.176;8.194;2023-04-25T06:22:45;8.30;99.90
18444;DHT22;9350;53.176;8.194;2023-04-25T06:25:11;8.30;99.90
18444;DHT22;9350;53.176;8.194;2023-04-25T06:27:38;8.20;99.90
18444;DHT22;9350;53.176;8.194;2023-04-25T06:30:06;8.30;99.90
18444;DHT22;9350;53.176;8.194;2023-04-25T06:32:35;8.30;99.90
18444;DHT22;9350;53.176;8.194;2023-04-25T06:35:01;8.20;99.90
18444;DHT22;9350;53.176;8.194;2023-04-25T06:37:29;8.40;99.90
18444;DHT22;9350;53.176;8.194;2023-04-25T06:39:55;8.30;99.90
18444;DHT22;9350;53.176;8.194;2023-04-25T06:42:22;8.30;99.90
18444;DHT22;9350;53.176;8.194;2023-04-25T06:44:49;8.30;99.90
18444;DHT22;9350;53.176;8.194;2023-04-25T06:47:15;8.30;99.90
18444;DHT22;9350;53.176;8.194;2023-04-25T06:49:43;8.40;99.90
18444;DHT22;9350;53.176;8.194;2023-04-25T06:52:10;8.30;99.90
18444;DHT22;9350;53.176;8.194;2023-04-25T06:54:37;8.40;99.90
18444;DHT22;9350;53.176;8.194;2023-04-25T06:57:03;8.50;99.90
18444;DHT22;9350;53.176;8.194;2023-04-25T06:59:30;8.50;99.90
18444;DHT22;9350;53.176;8.194;2023-04-25T07:01:58;8.50;99.90
18444;DHT22;9350;53.176;8.194;2023-04-25T07:04:25;8.50;99.90
18444;DHT22;9350;53.176;8.194;2023-04-25T07:06:53;8.60;99.90
18444;DHT22;9350;53.176;8.194;2023-04-25T07:09:20;8.60;99.90
18444;DHT22;9350;53.176;8.194;2023-04-25T07:11:47;8.60;99.90
18444;DHT22;9350;53.176;8.194;2023-04-25T07:14:13;8.70;99.90
18444;DHT22;9350;53.176;8.194;2023-04-25T07:16:40;8.60;99.90
18444;DHT22;9350;53.176;8.194;2023-04-25T07:19:07;8.70;99.90
18444;DHT22;9350;53.176;8.194;2023-04-25T07:21:34;8.70;99.90
18444;DHT22;9350;53.176;8.194;2023-04-25T07:24:03;8.90;99.90
18444;DHT22;9350;53.176;8.194;2023-04-25T07:26:30;9.00;99.90
18444;DHT22;9350;53.176;8.194;2023-04-25T07:28:57;9.00;99.90
18444;DHT22;9350;53.176;8.194;2023-04-25T07:31:23;8.90;99.90
18444;DHT22;9350;53.176;8.194;2023-04-25T07:33:50;8.80;99.90
18444;DHT22;9350;53.176;8.194;2023-04-25T07:36:17;8.70;99.90
18444;DHT22;9350;53.176;8.194;2023-04-25T07:38:44;8.80;99.90
18444;DHT22;9350;53.176;8.194;2023-04-25T07:41:12;8.70;99.90
18444;DHT22;9350;53.176;8.194;2023-04-25T07:43:39;8.60;99.90
18444;DHT22;9350;53.176;8.194;2023-04-25T07:46:06;8.60;99.90
18444;DHT22;9350;53.176;8.194;2023-04-25T07:48:32;8.60;99.90
18444;DHT22;9350;53.176;8.194;2023-04-25T07:50:59;8.50;99.90
18444;DHT22;9350;53.176;8.194;2023-04-25T07:53:26;8.40;99.90
18444;DHT22;9350;53.176;8.194;2023-04-25T07:55:53;8.00;99.90
18444;DHT22;9350;53.176;8.194;2023-04-25T07:58:21;7.80;99.90
18444;DHT22;9350;53.176;8.194;2023-04-25T08:00:48;7.80;99.90
18444;DHT22;9350;53.176;8.194;2023-04-25T08:03:16;7.80;99.90
18444;DHT22;9350;53.176;8.194;2023-04-25T08:05:43;7.90;99.90
18444;DHT22;9350;53.176;8.194;2023-04-25T08:08:11;7.90;99.90
18444;DHT22;9350;53.176;8.194;2023-04-25T08:10:37;8.00;99.90
18444;DHT22;9350;53.176;8.194;2023-04-25T08:13:04;8.20;99.90
18444;DHT22;9350;53.176;8.194;2023-04-25T08:15:32;8.20;99.90
18444;DHT22;9350;53.176;8.194;2023-04-25T08:17:59;8.30;99.90
18444;DHT22;9350;53.176;8.194;2023-04-25T08:20:26;8.30;99.90
18444;DHT22;9350;53.176;8.194;2023-04-25T08:22:53;8.40;99.90
18444;DHT22;9350;53.176;8.194;2023-04-25T08:25:20;8.40;99.90
18444;DHT22;9350;53.176;8.194;2023-04-25T08:27:46;8.60;99.90
18444;DHT22;9350;53.176;8.194;2023-04-25T08:30:13;8.60;99.90
18444;DHT22;9350;53.176;8.194;2023-04-25T08:32:41;8.80;99.90
18444;DHT22;9350;53.176;8.194;2023-04-25T08:35:08;8.90;99.90
18444;DHT22;9350;53.176;8.194;2023-04-25T08:37:35;9.00;99.90
18444;DHT22;9350;53.176;8.194;2023-04-25T08:40:03;8.90;99.90
18444;DHT22;9350;53.176;8.194;2023-04-25T08:42:33;8.90;99.90
18444;DHT22;9350;53.176;8.194;2023-04-25T08:45:01;8.90;99.90
18444;DHT22;9350;53.176;8.194;2023-04-25T08:47:30;8.80;99.90
18444;DHT22;9350;53.176;8.194;2023-04-25T08:50:02;8.60;99.90
18444;DHT22;9350;53.176;8.194;2023-04-25T08:52:32;8.60;99.90
18444;DHT22;9350;53.176;8.194;2023-04-25T08:55:02;8.30;99.90
18444;DHT22;9350;53.176;8.194;2023-04-25T08:57:31;8.40;99.90
18444;DHT22;9350;53.176;8.194;2023-04-25T08:59:58;8.40;99.90
18444;DHT22;9350;53.176;8.194;2023-04-25T09:02:25;8.60;99.90
18444;DHT22;9350;53.176;8.194;2023-04-25T09:04:53;8.70;99.90
18444;DHT22;9350;53.176;8.194;2023-04-25T09:07:22;8.70;99.90
18444;DHT22;9350;53.176;8.194;2023-04-25T09:09:51;8.90;99.90
18444;DHT22;9350;53.176;8.194;2023-04-25T09:12:18;9.00;99.90
18444;DHT22;9350;53.176;8.194;2023-04-25T09:15:01;9.10;99.90
18444;DHT22;9350;53.176;8.194;2023-04-25T09:17:29;9.30;99.90
18444;DHT22;9350;53.176;8.194;2023-04-25T09:20:05;9.30;99.90
18444;DHT22;9350;53.176;8.194;2023-04-25T09:22:34;9.30;99.90
18444;DHT22;9350;53.176;8.194;2023-04-25T09:25:03;9.40;99.90
18444;DHT22;9350;53.176;8.194;2023-04-25T09:27:30;9.40;99.90
18444;DHT22;9350;53.176;8.194;2023-04-25T09:29:58;9.40;99.90
18444;DHT22;9350;53.176;8.194;2023-04-25T09:32:25;9.30;99.90
18444;DHT22;9350;53.176;8.194;2023-04-25T09:34:53;9.30;99.90
18444;DHT22;9350;53.176;8.194;2023-04-25T09:37:21;9.10;99.90
18444;DHT22;9350;53.176;8.194;2023-04-25T09:39:53;8.80;99.90
18444;DHT22;9350;53.176;8.194;2023-04-25T09:42:22;8.40;99.90
18444;DHT22;9350;53.176;8.194;2023-04-25T09:44:51;8.30;99.90
18444;DHT22;9350;53.176;8.194;2023-04-25T09:47:19;8.20;99.90
18444;DHT22;9350;53.176;8.194;2023-04-25T09:49:47;8.20;99.90
18444;DHT22;9350;53.176;8.194;2023-04-25T09:52:17;8.10;99.90
18444;DHT22;9350;53.176;8.194;2023-04-25T09:54:46;8.10;99.90
18444;DHT22;9350;53.176;8.194;2023-04-25T09:57:16;8.30;99.90
18444;DHT22;9350;53.176;8.194;2023-04-25T09:59:44;8.30;99.90
18444;DHT22;9350;53.176;8.194;2023-04-25T10:02:13;8.30;99.90
18444;DHT22;9350;53.176;8.194;2023-04-25T10:04:41;8.40;99.90
18444;DHT22;9350;53.176;8.194;2023-04-25T10:07:08;8.50;99.90
18444;DHT22;9350;53.176;8.194;2023-04-25T10:09:37;8.70;99.90
18444;DHT22;9350;53.176;8.194;2023-04-25T10:12:05;8.70;99.90
18444;DHT22;9350;53.176;8.194;2023-04-25T10:14:34;8.80;99.90
18444;DHT22;9350;53.176;8.194;2023-04-25T10:17:02;8.90;99.90
18444;DHT22;9350;53.176;8.194;2023-04-25T10:19:29;8.90;99.90
18444;DHT22;9350;53.176;8.194;2023-04-25T10:22:02;9.10;99.90
18444;DHT22;9350;53.176;8.194;2023-04-25T10:24:29;9.20;99.90
18444;DHT22;9350;53.176;8.194;2023-04-25T10:26:57;9.30;99.90
18444;DHT22;9350;53.176;8.194;2023-04-25T10:29:25;9.30;99.90
18444;DHT22;9350;53.176;8.194;2023-04-25T10:31:54;9.40;99.90
18444;DHT22;9350;53.176;8.194;2023-04-25T10:34:24;9.50;99.90
18444;DHT22;9350;53.176;8.194;2023-04-25T10:36:59;9.70;99.90
18444;DHT22;9350;53.176;8.194;2023-04-25T10:39:29;9.80;99.90
18444;DHT22;9350;53.176;8.194;2023-04-25T10:41:56;9.90;99.90
18444;DHT22;9350;53.176;8.194;2023-04-25T10:44:26;10.00;99.90
18444;DHT22;9350;53.176;8.194;2023-04-25T10:46:56;10.00;99.90
18444;DHT22;9350;53.176;8.194;2023-04-25T10:49:34;9.90;99.90
18444;DHT22;9350;53.176;8.194;2023-04-25T10:52:24;10.00;99.90
18444;DHT22;9350;53.176;8.194;2023-04-25T10:54:52;10.10;99.90
18444;DHT22;9350;53.176;8.194;2023-04-25T10:57:30;10.10;99.90
18444;DHT22;9350;53.176;8.194;2023-04-25T11:00:02;10.10;99.90
18444;DHT22;9350;53.176;8.194;2023-04-25T11:02:37;10.30;99.90
18444;DHT22;9350;53.176;8.194;2023-04-25T11:05:04;10.50;99.90
18444;DHT22;9350;53.176;8.194;2023-04-25T11:07:37;10.60;99.90
18444;DHT22;9350;53.176;8.194;2023-04-25T11:10:05;10.60;99.90
18444;DHT22;9350;53.176;8.194;2023-04-25T11:12:32;10.60;99.90
18444;DHT22;9350;53.176;8.194;2023-04-25T11:15:00;10.60;99.90
18444;DHT22;9350;53.176;8.194;2023-04-25T11:17:28;10.50;99.90
18444;DHT22;9350;53.176;8.194;2023-04-25T11:19:56;10.40;99.90
18444;DHT22;9350;53.176;8.194;2023-04-25T11:22:23;10.40;99.90
18444;DHT22;9350;53.176;8.194;2023-04-25T11:24:50;10.40;99.90
18444;DHT22;9350;53.176;8.194;2023-04-25T11:27:17;10.30;99.90
18444;DHT22;9350;53.176;8.194;2023-04-25T11:29:44;10.20;99.90
18444;DHT22;9350;53.176;8.194;2023-04-25T11:32:14;10.10;99.90
18444;DHT22;9350;53.176;8.194;2023-04-25T11:34:43;10.10;99.90
18444;DHT22;9350;53.176;8.194;2023-04-25T11:37:12;9.80;99.90
18444;DHT22;9350;53.176;8.194;2023-04-25T11:39:43;9.80;99.90
18444;DHT22;9350;53.176;8.194;2023-04-25T11:42:10;9.80;99.90
18444;DHT22;9350;53.176;8.194;2023-04-25T11:44:38;9.80;99.90
18444;DHT22;9350;53.176;8.194;2023-04-25T11:47:06;9.80;99.90
18444;DHT22;9350;53.176;8.194;2023-04-25T11:49:32;10.00;99.90
18444;DHT22;9350;53.176;8.194;2023-04-25T11:52:00;10.10;99.90
18444;DHT22;9350;53.176;8.194;2023-04-25T11:54:28;10.20;99.90
18444;DHT22;9350;53.176;8.194;2023-04-25T11:56:55;10.20;99.90
18444;DHT22;9350;53.176;8.194;2023-04-25T11:59:24;10.10;99.90
18444;DHT22;9350;53.176;8.194;2023-04-25T12:01:51;10.10;99.90
18444;DHT22;9350;53.176;8.194;2023-04-25T12:04:20;10.00;99.90
18444;DHT22;9350;53.176;8.194;2023-04-25T12:06:48;10.10;99.90
18444;DHT22;9350;53.176;8.194;2023-04-25T12:09:16;10.10;99.90
18444;DHT22;9350;53.176;8.194;2023-04-25T12:11:46;10.10;99.90
18444;DHT22;9350;53.176;8.194;2023-04-25T12:14:21;10.30;99.90
18444;DHT22;9350;53.176;8.194;2023-04-25T12:16:48;10.50;99.90
18444;DHT22;9350;53.176;8.194;2023-04-25T12:19:17;10.80;99.90
18444;DHT22;9350;53.176;8.194;2023-04-25T12:21:44;10.80;99.90
18444;DHT22;9350;53.176;8.194;2023-04-25T12:24:12;10.60;99.90
18444;DHT22;9350;53.176;8.194;2023-04-25T12:26:51;10.50;99.90
18444;DHT22;9350;53.176;8.194;2023-04-25T12:29:19;10.50;99.90
18444;DHT22;9350;53.176;8.194;2023-04-25T12:31:47;10.40;99.90
18444;DHT22;9350;53.176;8.194;2023-04-25T12:34:13;10.40;99.90
18444;DHT22;9350;53.176;8.194;2023-04-25T12:36:40;10.50;99.90
18444;DHT22;9350;53.176;8.194;2023-04-25T12:39:07;10.60;99.90
18444;DHT22;9350;53.176;8.194;2023-04-25T12:41:34;10.70;99.90
18444;DHT22;9350;53.176;8.194;2023-04-25T12:44:02;10.70;99.90
18444;DHT22;9350;53.176;8.194;2023-04-25T12:46:29;10.60;99.90
18444;DHT22;9350;53.176;8.194;2023-04-25T12:48:56;10.50;99.90
18444;DHT22;9350;53.176;8.194;2023-04-25T12:51:23;10.50;99.90
18444;DHT22;9350;53.176;8.194;2023-04-25T12:53:50;10.40;99.90
18444;DHT22;9350;53.176;8.194;2023-04-25T12:56:18;10.60;99.90
18444;DHT22;9350;53.176;8.194;2023-04-25T12:58:45;10.70;99.90
18444;DHT22;9350;53.176;8.194;2023-04-25T13:01:14;10.80;99.90
18444;DHT22;9350;53.176;8.194;2023-04-25T13:03:41;10.80;99.90
18444;DHT22;9350;53.176;8.194;2023-04-25T13:06:08;10.70;99.90
18444;DHT22;9350;53.176;8.194;2023-04-25T13:08:35;10.60;99.90
18444;DHT22;9350;53.176;8.194;2023-04-25T13:11:03;10.70;99.90
18444;DHT22;9350;53.176;8.194;2023-04-25T13:13:30;10.90;99.90
18444;DHT22;9350;53.176;8.194;2023-04-25T13:15:59;11.00;99.90
18444;DHT22;9350;53.176;8.194;2023-04-25T13:18:28;10.90;99.90
18444;DHT22;9350;53.176;8.194;2023-04-25T13:20:56;11.00;99.90
18444;DHT22;9350;53.176;8.194;2023-04-25T13:23:24;11.10;99.90
18444;DHT22;9350;53.176;8.194;2023-04-25T13:25:51;11.20;99.90
18444;DHT22;9350;53.176;8.194;2023-04-25T13:28:18;11.10;99.90
18444;DHT22;9350;53.176;8.194;2023-04-25T13:30:45;11.10;99.90
18444;DHT22;9350;53.176;8.194;2023-04-25T13:33:13;11.20;99.90
18444;DHT22;9350;53.176;8.194;2023-04-25T13:35:42;11.30;99.90
18444;DHT22;9350;53.176;8.194;2023-04-25T13:38:08;11.20;99.90
18444;DHT22;9350;53.176;8.194;2023-04-25T13:40:35;11.20;99.90
18444;DHT22;9350;53.176;8.194;2023-04-25T13:43:02;11.10;99.90
18444;DHT22;9350;53.176;8.194;2023-04-25T13:45:29;11.20;99.90
18444;DHT22;9350;53.176;8.194;2023-04-25T13:47:55;11.20;99.90
18444;DHT22;9350;53.176;8.194;2023-04-25T13:50:22;11.40;99.90
18444;DHT22;9350;53.176;8.194;2023-04-25T13:52:50;11.30;99.90
18444;DHT22;9350;53.176;8.194;2023-04-25T13:55:17;11.00;99.90
18444;DHT22;9350;53.176;8.194;2023-04-25T13:57:44;11.00;99.90
18444;DHT22;9350;53.176;8.194;2023-04-25T14:00:13;11.10;99.90
18444;DHT22;9350;53.176;8.194;2023-04-25T14:02:40;11.00;99.90
18444;DHT22;9350;53.176;8.194;2023-04-25T14:05:07;11.00;99.90
18444;DHT22;9350;53.176;8.194;2023-04-25T14:07:34;11.10;99.90
18444;DHT22;9350;53.176;8.194;2023-04-25T14:10:03;11.10;99.90
18444;DHT22;9350;53.176;8.194;2023-04-25T14:12:30;11.30;99.90
18444;DHT22;9350;53.176;8.194;2023-04-25T14:14:57;11.40;99.90
18444;DHT22;9350;53.176;8.194;2023-04-25T14:17:24;11.30;99.90
18444;DHT22;9350;53.176;8.194;2023-04-25T14:19:51;11.20;99.90
18444;DHT22;9350;53.176;8.194;2023-04-25T14:22:17;11.40;99.90
18444;DHT22;9350;53.176;8.194;2023-04-25T14:24:44;11.30;99.90
18444;DHT22;9350;53.176;8.194;2023-04-25T14:27:13;11.30;99.90
18444;DHT22;9350;53.176;8.194;2023-04-25T14:29:39;11.20;99.90
18444;DHT22;9350;53.176;8.194;2023-04-25T14:32:06;11.10;99.90
18444;DHT22;9350;53.176;8.194;2023-04-25T14:34:33;11.20;99.90
18444;DHT22;9350;53.176;8.194;2023-04-25T14:37:00;11.30;99.90
18444;DHT22;9350;53.176;8.194;2023-04-25T14:39:27;11.40;99.90
18444;DHT22;9350;53.176;8.194;2023-04-25T14:41:53;11.40;99.90
18444;DHT22;9350;53.176;8.194;2023-04-25T14:44:22;11.50;99.90
18444;DHT22;9350;53.176;8.194;2023-04-25T14:46:49;11.40;99.90
18444;DHT22;9350;53.176;8.194;2023-04-25T14:49:17;11.40;99.90
18444;DHT22;9350;53.176;8.194;2023-04-25T14:51:44;11.20;99.90
18444;DHT22;9350;53.176;8.194;2023-04-25T14:54:10;10.60;99.90
18444;DHT22;9350;53.176;8.194;2023-04-25T14:56:37;10.50;99.90
18444;DHT22;9350;53.176;8.194;2023-04-25T14:59:04;10.60;99.90
18444;DHT22;9350;53.176;8.194;2023-04-25T15:01:32;10.60;99.90
18444;DHT22;9350;53.176;8.194;2023-04-25T15:04:00;10.70;99.90
18444;DHT22;9350;53.176;8.194;2023-04-25T15:06:26;10.70;99.90
18444;DHT22;9350;53.176;8.194;2023-04-25T15:08:54;10.70;99.90
18444;DHT22;9350;53.176;8.194;2023-04-25T15:11:22;10.70;99.90
18444;DHT22;9350;53.176;8.194;2023-04-25T15:13:49;10.60;99.90
18444;DHT22;9350;53.176;8.194;2023-04-25T15:16:16;10.80;99.90
18444;DHT22;9350;53.176;8.194;2023-04-25T15:18:44;10.90;99.90
18444;DHT22;9350;53.176;8.194;2023-04-25T15:21:10;10.90;99.90
18444;DHT22;9350;53.176;8.194;2023-04-25T15:23:37;10.80;99.90
18444;DHT22;9350;53.176;8.194;2023-04-25T15:26:04;10.80;99.90
18444;DHT22;9350;53.176;8.194;2023-04-25T15:28:31;10.90;99.90
18444;DHT22;9350;53.176;8.194;2023-04-25T15:30:59;10.90;99.90
18444;DHT22;9350;53.176;8.194;2023-04-25T15:33:25;10.90;99.90
18444;DHT22;9350;53.176;8.194;2023-04-25T15:35:53;11.00;99.90
18444;DHT22;9350;53.176;8.194;2023-04-25T15:38:21;11.00;99.90
18444;DHT22;9350;53.176;8.194;2023-04-25T15:40:48;10.90;99.90
18444;DHT22;9350;53.176;8.194;2023-04-25T15:43:15;10.90;99.90
18444;DHT22;9350;53.176;8.194;2023-04-25T15:45:41;10.80;99.90
18444;DHT22;9350;53.176;8.194;2023-04-25T15:48:08;10.90;99.90
18444;DHT22;9350;53.176;8.194;2023-04-25T15:50:35;10.90;99.90
18444;DHT22;9350;53.176;8.194;2023-04-25T15:53:03;10.80;99.90
18444;DHT22;9350;53.176;8.194;2023-04-25T15:55:30;10.60;99.90
18444;DHT22;9350;53.176;8.194;2023-04-25T15:57:58;10.50;99.90
18444;DHT22;9350;53.176;8.194;2023-04-25T16:00:25;10.30;99.90